sensor_id;sensor_type;location;lat;lon;timestamp;P1;durP1;ratioP1;P2;durP2;ratioP2
21034;SDS011;10676;50.848;3.272;2023-02-24T00:01:31;22.48;;;12.88;;
21034;SDS011;10676;50.848;3.272;2023-02-24T00:04:02;23.92;;;13.65;;
21034;SDS011;10676;50.848;3.272;2023-02-24T00:06:32;19.63;;;12.68;;
21034;SDS011;10676;50.848;3.272;2023-02-24T00:11:37;17.50;;;12.00;;
21034;SDS011;10676;50.848;3.272;2023-02-24T00:14:05;23.13;;;13.63;;
21034;SDS011;10676;50.848;3.272;2023-02-24T00:16:32;23.75;;;13.50;;
21034;SDS011;10676;50.848;3.272;2023-02-24T00:18:59;20.15;;;12.85;;
21034;SDS011;10676;50.848;3.272;2023-02-24T00:21:26;17.27;;;14.02;;
21034;SDS011;10676;50.848;3.272;2023-02-24T00:23:53;22.42;;;14.15;;
21034;SDS011;10676;50.848;3.272;2023-02-24T00:26:18;21.35;;;12.98;;
21034;SDS011;10676;50.848;3.272;2023-02-24T00:28:44;22.52;;;13.38;;
21034;SDS011;10676;50.848;3.272;2023-02-24T00:31:12;24.25;;;13.77;;
21034;SDS011;10676;50.848;3.272;2023-02-24T00:33:40;19.35;;;13.25;;
21034;SDS011;10676;50.848;3.272;2023-02-24T00:36:08;26.67;;;14.25;;
21034;SDS011;10676;50.848;3.272;2023-02-24T00:38:36;29.35;;;12.55;;
21034;SDS011;10676;50.848;3.272;2023-02-24T00:41:16;23.05;;;14.45;;
21034;SDS011;10676;50.848;3.272;2023-02-24T00:43:43;22.58;;;14.05;;
21034;SDS011;10676;50.848;3.272;2023-02-24T00:46:16;21.02;;;14.15;;
21034;SDS011;10676;50.848;3.272;2023-02-24T00:48:45;23.67;;;13.35;;
21034;SDS011;10676;50.848;3.272;2023-02-24T00:51:13;22.80;;;13.65;;
21034;SDS011;10676;50.848;3.272;2023-02-24T00:53:50;19.98;;;13.38;;
21034;SDS011;10676;50.848;3.272;2023-02-24T00:56:20;27.75;;;14.15;;
21034;SDS011;10676;50.848;3.272;2023-02-24T00:58:46;20.90;;;14.25;;
21034;SDS011;10676;50.848;3.272;2023-02-24T01:01:13;22.42;;;13.52;;
21034;SDS011;10676;50.848;3.272;2023-02-24T01:03:41;21.63;;;13.50;;
21034;SDS011;10676;50.848;3.272;2023-02-24T01:06:08;24.05;;;13.32;;
21034;SDS011;10676;50.848;3.272;2023-02-24T01:08:36;22.33;;;12.27;;
21034;SDS011;10676;50.848;3.272;2023-02-24T01:11:07;20.00;;;13.18;;
21034;SDS011;10676;50.848;3.272;2023-02-24T01:13:52;28.67;;;12.82;;
21034;SDS011;10676;50.848;3.272;2023-02-24T01:16:18;17.88;;;12.95;;
21034;SDS011;10676;50.848;3.272;2023-02-24T01:18:44;26.95;;;12.32;;
21034;SDS011;10676;50.848;3.272;2023-02-24T01:21:15;18.55;;;13.75;;
21034;SDS011;10676;50.848;3.272;2023-02-24T01:23:42;21.77;;;13.70;;
21034;SDS011;10676;50.848;3.272;2023-02-24T01:26:11;21.17;;;12.00;;
21034;SDS011;10676;50.848;3.272;2023-02-24T01:28:37;28.77;;;13.10;;
21034;SDS011;10676;50.848;3.272;2023-02-24T01:31:03;21.13;;;13.05;;
21034;SDS011;10676;50.848;3.272;2023-02-24T01:33:30;21.35;;;13.15;;
21034;SDS011;10676;50.848;3.272;2023-02-24T01:36:14;19.50;;;12.75;;
21034;SDS011;10676;50.848;3.272;2023-02-24T01:38:43;24.73;;;13.75;;
21034;SDS011;10676;50.848;3.272;2023-02-24T01:41:10;21.15;;;13.55;;
21034;SDS011;10676;50.848;3.272;2023-02-24T01:43:54;22.58;;;13.55;;
21034;SDS011;10676;50.848;3.272;2023-02-24T01:46:32;27.60;;;14.38;;
21034;SDS011;10676;50.848;3.272;2023-02-24T01:49:10;25.85;;;13.52;;
21034;SDS011;10676;50.848;3.272;2023-02-24T01:51:39;17.52;;;13.32;;
21034;SDS011;10676;50.848;3.272;2023-02-24T01:54:12;22.23;;;13.45;;
21034;SDS011;10676;50.848;3.272;2023-02-24T01:56:42;23.55;;;14.52;;
21034;SDS011;10676;50.848;3.272;2023-02-24T01:59:10;26.15;;;13.05;;
21034;SDS011;10676;50.848;3.272;2023-02-24T02:01:36;23.63;;;14.50;;
21034;SDS011;10676;50.848;3.272;2023-02-24T02:04:30;22.10;;;14.90;;
21034;SDS011;10676;50.848;3.272;2023-02-24T02:06:57;21.33;;;15.20;;
21034;SDS011;10676;50.848;3.272;2023-02-24T02:09:22;18.17;;;16.20;;
21034;SDS011;10676;50.848;3.272;2023-02-24T02:11:49;22.67;;;15.52;;
21034;SDS011;10676;50.848;3.272;2023-02-24T02:14:15;25.45;;;14.35;;
21034;SDS011;10676;50.848;3.272;2023-02-24T02:17:01;21.05;;;13.63;;
21034;SDS011;10676;50.848;3.272;2023-02-24T02:19:54;19.67;;;14.60;;
21034;SDS011;10676;50.848;3.272;2023-02-24T02:31:29;22.67;;;14.70;;
21034;SDS011;10676;50.848;3.272;2023-02-24T02:35:02;20.10;;;13.73;;
21034;SDS011;10676;50.848;3.272;2023-02-24T02:37:18;17.35;;;13.38;;
21034;SDS011;10676;50.848;3.272;2023-02-24T02:42:59;22.25;;;13.75;;
21034;SDS011;10676;50.848;3.272;2023-02-24T02:45:39;16.55;;;13.80;;
21034;SDS011;10676;50.848;3.272;2023-02-24T02:48:17;17.88;;;13.45;;
21034;SDS011;10676;50.848;3.272;2023-02-24T02:50:56;20.35;;;12.65;;
21034;SDS011;10676;50.848;3.272;2023-02-24T02:53:40;22.70;;;12.38;;
21034;SDS011;10676;50.848;3.272;2023-02-24T02:56:15;15.38;;;12.40;;
21034;SDS011;10676;50.848;3.272;2023-02-24T02:59:02;23.17;;;13.30;;
21034;SDS011;10676;50.848;3.272;2023-02-24T03:01:32;29.30;;;12.68;;
21034;SDS011;10676;50.848;3.272;2023-02-24T03:04:05;22.23;;;13.32;;
21034;SDS011;10676;50.848;3.272;2023-02-24T03:06:39;22.23;;;12.35;;
21034;SDS011;10676;50.848;3.272;2023-02-24T03:09:09;27.55;;;12.43;;
21034;SDS011;10676;50.848;3.272;2023-02-24T03:11:44;23.92;;;12.80;;
21034;SDS011;10676;50.848;3.272;2023-02-24T03:14:18;16.75;;;12.18;;
21034;SDS011;10676;50.848;3.272;2023-02-24T03:16:48;22.48;;;13.32;;
21034;SDS011;10676;50.848;3.272;2023-02-24T03:19:15;15.30;;;13.38;;
21034;SDS011;10676;50.848;3.272;2023-02-24T03:21:45;22.95;;;14.68;;
21034;SDS011;10676;50.848;3.272;2023-02-24T03:24:21;16.30;;;13.23;;
21034;SDS011;10676;50.848;3.272;2023-02-24T03:26:49;30.27;;;15.63;;
21034;SDS011;10676;50.848;3.272;2023-02-24T03:29:33;15.82;;;13.82;;
21034;SDS011;10676;50.848;3.272;2023-02-24T03:32:17;23.67;;;13.70;;
21034;SDS011;10676;50.848;3.272;2023-02-24T03:35:25;20.13;;;15.02;;
21034;SDS011;10676;50.848;3.272;2023-02-24T03:37:55;22.25;;;15.40;;
21034;SDS011;10676;50.848;3.272;2023-02-24T03:40:23;16.88;;;13.57;;
21034;SDS011;10676;50.848;3.272;2023-02-24T03:42:59;19.15;;;16.25;;
21034;SDS011;10676;50.848;3.272;2023-02-24T03:45:35;18.33;;;14.18;;
21034;SDS011;10676;50.848;3.272;2023-02-24T03:48:03;30.63;;;15.60;;
21034;SDS011;10676;50.848;3.272;2023-02-24T03:50:31;18.95;;;16.35;;
21034;SDS011;10676;50.848;3.272;2023-02-24T04:01:18;19.27;;;14.93;;
21034;SDS011;10676;50.848;3.272;2023-02-24T04:04:06;22.33;;;15.45;;
21034;SDS011;10676;50.848;3.272;2023-02-24T04:11:52;17.35;;;14.63;;
21034;SDS011;10676;50.848;3.272;2023-02-24T04:17:11;17.00;;;15.55;;
21034;SDS011;10676;50.848;3.272;2023-02-24T04:19:47;25.30;;;17.60;;
21034;SDS011;10676;50.848;3.272;2023-02-24T04:22:16;28.47;;;15.03;;
21034;SDS011;10676;50.848;3.272;2023-02-24T04:24:47;22.43;;;14.23;;
21034;SDS011;10676;50.848;3.272;2023-02-24T04:27:17;25.07;;;15.03;;
21034;SDS011;10676;50.848;3.272;2023-02-24T04:29:45;15.47;;;13.53;;
21034;SDS011;10676;50.848;3.272;2023-02-24T04:32:17;16.50;;;12.53;;
21034;SDS011;10676;50.848;3.272;2023-02-24T04:34:46;19.93;;;13.03;;
21034;SDS011;10676;50.848;3.272;2023-02-24T04:37:12;14.40;;;13.00;;
21034;SDS011;10676;50.848;3.272;2023-02-24T04:39:38;16.70;;;15.03;;
21034;SDS011;10676;50.848;3.272;2023-02-24T04:42:04;18.77;;;15.07;;
21034;SDS011;10676;50.848;3.272;2023-02-24T04:44:31;20.03;;;14.20;;
21034;SDS011;10676;50.848;3.272;2023-02-24T04:46:57;21.83;;;14.57;;
21034;SDS011;10676;50.848;3.272;2023-02-24T04:49:24;17.47;;;14.30;;
21034;SDS011;10676;50.848;3.272;2023-02-24T04:51:50;17.03;;;15.00;;
21034;SDS011;10676;50.848;3.272;2023-02-24T04:54:17;19.63;;;14.33;;
21034;SDS011;10676;50.848;3.272;2023-02-24T04:56:44;16.87;;;15.23;;
21034;SDS011;10676;50.848;3.272;2023-02-24T04:59:20;21.87;;;13.23;;
21034;SDS011;10676;50.848;3.272;2023-02-24T05:01:46;15.57;;;13.93;;
21034;SDS011;10676;50.848;3.272;2023-02-24T05:04:16;16.90;;;14.77;;
21034;SDS011;10676;50.848;3.272;2023-02-24T05:06:43;21.90;;;15.77;;
21034;SDS011;10676;50.848;3.272;2023-02-24T05:09:09;21.83;;;13.53;;
21034;SDS011;10676;50.848;3.272;2023-02-24T05:11:44;16.57;;;13.90;;
21034;SDS011;10676;50.848;3.272;2023-02-24T05:14:15;17.53;;;12.33;;
21034;SDS011;10676;50.848;3.272;2023-02-24T05:16:42;17.63;;;14.60;;
21034;SDS011;10676;50.848;3.272;2023-02-24T05:19:10;20.73;;;12.93;;
21034;SDS011;10676;50.848;3.272;2023-02-24T05:21:55;22.43;;;13.83;;
21034;SDS011;10676;50.848;3.272;2023-02-24T05:24:26;16.20;;;13.03;;
21034;SDS011;10676;50.848;3.272;2023-02-24T05:26:53;23.37;;;14.50;;
21034;SDS011;10676;50.848;3.272;2023-02-24T05:29:27;19.87;;;14.70;;
21034;SDS011;10676;50.848;3.272;2023-02-24T05:31:54;25.93;;;14.67;;
21034;SDS011;10676;50.848;3.272;2023-02-24T05:34:24;17.33;;;11.83;;
21034;SDS011;10676;50.848;3.272;2023-02-24T05:36:55;15.70;;;11.60;;
21034;SDS011;10676;50.848;3.272;2023-02-24T05:39:22;17.53;;;13.00;;
21034;SDS011;10676;50.848;3.272;2023-02-24T05:41:50;30.20;;;12.07;;
21034;SDS011;10676;50.848;3.272;2023-02-24T05:44:19;12.97;;;11.63;;
21034;SDS011;10676;50.848;3.272;2023-02-24T05:46:47;23.57;;;12.47;;
21034;SDS011;10676;50.848;3.272;2023-02-24T05:49:17;22.70;;;14.13;;
21034;SDS011;10676;50.848;3.272;2023-02-24T05:51:47;21.87;;;13.80;;
21034;SDS011;10676;50.848;3.272;2023-02-24T05:54:30;25.43;;;14.73;;
21034;SDS011;10676;50.848;3.272;2023-02-24T05:57:00;18.40;;;13.33;;
21034;SDS011;10676;50.848;3.272;2023-02-24T05:59:27;19.57;;;12.07;;
21034;SDS011;10676;50.848;3.272;2023-02-24T06:01:57;21.20;;;13.17;;
21034;SDS011;10676;50.848;3.272;2023-02-24T06:04:31;19.13;;;13.07;;
21034;SDS011;10676;50.848;3.272;2023-02-24T06:09:38;17.07;;;13.67;;
21034;SDS011;10676;50.848;3.272;2023-02-24T06:12:06;31.00;;;14.27;;
21034;SDS011;10676;50.848;3.272;2023-02-24T06:14:33;18.03;;;14.37;;
21034;SDS011;10676;50.848;3.272;2023-02-24T06:16:58;31.00;;;15.23;;
21034;SDS011;10676;50.848;3.272;2023-02-24T06:19:27;22.17;;;16.70;;
21034;SDS011;10676;50.848;3.272;2023-02-24T06:21:56;19.67;;;16.27;;
21034;SDS011;10676;50.848;3.272;2023-02-24T06:24:25;23.97;;;14.80;;
21034;SDS011;10676;50.848;3.272;2023-02-24T06:26:53;19.83;;;15.20;;
21034;SDS011;10676;50.848;3.272;2023-02-24T06:29:26;27.83;;;17.03;;
21034;SDS011;10676;50.848;3.272;2023-02-24T06:31:54;22.00;;;15.13;;
21034;SDS011;10676;50.848;3.272;2023-02-24T06:34:22;23.23;;;15.23;;
21034;SDS011;10676;50.848;3.272;2023-02-24T06:36:49;19.13;;;16.77;;
21034;SDS011;10676;50.848;3.272;2023-02-24T06:39:16;25.37;;;16.83;;
21034;SDS011;10676;50.848;3.272;2023-02-24T06:41:43;25.60;;;17.57;;
21034;SDS011;10676;50.848;3.272;2023-02-24T06:44:09;20.07;;;15.53;;
21034;SDS011;10676;50.848;3.272;2023-02-24T06:46:35;26.63;;;17.17;;
21034;SDS011;10676;50.848;3.272;2023-02-24T06:49:01;26.13;;;20.93;;
21034;SDS011;10676;50.848;3.272;2023-02-24T06:51:27;28.90;;;19.00;;
21034;SDS011;10676;50.848;3.272;2023-02-24T06:53:55;23.83;;;19.00;;
21034;SDS011;10676;50.848;3.272;2023-02-24T06:56:21;26.40;;;19.10;;
21034;SDS011;10676;50.848;3.272;2023-02-24T06:58:48;23.77;;;18.90;;
21034;SDS011;10676;50.848;3.272;2023-02-24T07:01:20;25.77;;;18.47;;
21034;SDS011;10676;50.848;3.272;2023-02-24T07:03:53;22.40;;;17.27;;
21034;SDS011;10676;50.848;3.272;2023-02-24T07:06:26;23.43;;;15.67;;
21034;SDS011;10676;50.848;3.272;2023-02-24T07:08:59;23.27;;;14.97;;
21034;SDS011;10676;50.848;3.272;2023-02-24T07:11:29;23.07;;;15.63;;
21034;SDS011;10676;50.848;3.272;2023-02-24T07:13:57;26.20;;;17.70;;
21034;SDS011;10676;50.848;3.272;2023-02-24T07:16:23;24.30;;;17.93;;
21034;SDS011;10676;50.848;3.272;2023-02-24T07:18:56;28.13;;;20.43;;
21034;SDS011;10676;50.848;3.272;2023-02-24T07:21:24;32.33;;;23.17;;
21034;SDS011;10676;50.848;3.272;2023-02-24T07:23:51;31.90;;;22.67;;
21034;SDS011;10676;50.848;3.272;2023-02-24T07:26:24;29.97;;;26.17;;
21034;SDS011;10676;50.848;3.272;2023-02-24T07:28:52;30.60;;;22.33;;
21034;SDS011;10676;50.848;3.272;2023-02-24T07:31:19;25.97;;;21.27;;
21034;SDS011;10676;50.848;3.272;2023-02-24T07:33:47;29.83;;;20.67;;
21034;SDS011;10676;50.848;3.272;2023-02-24T07:36:16;34.50;;;17.53;;
21034;SDS011;10676;50.848;3.272;2023-02-24T07:38:47;30.60;;;17.43;;
21034;SDS011;10676;50.848;3.272;2023-02-24T07:41:16;24.77;;;15.00;;
21034;SDS011;10676;50.848;3.272;2023-02-24T07:43:46;24.47;;;14.37;;
21034;SDS011;10676;50.848;3.272;2023-02-24T07:46:15;30.23;;;15.17;;
21034;SDS011;10676;50.848;3.272;2023-02-24T07:48:48;27.92;;;15.70;;
21034;SDS011;10676;50.848;3.272;2023-02-24T07:51:15;35.53;;;14.50;;
21034;SDS011;10676;50.848;3.272;2023-02-24T07:53:43;22.70;;;13.52;;
21034;SDS011;10676;50.848;3.272;2023-02-24T07:56:14;15.10;;;12.98;;
21034;SDS011;10676;50.848;3.272;2023-02-24T07:58:44;31.17;;;14.63;;
21034;SDS011;10676;50.848;3.272;2023-02-24T08:01:11;19.23;;;12.18;;
21034;SDS011;10676;50.848;3.272;2023-02-24T08:04:04;24.42;;;10.43;;
21034;SDS011;10676;50.848;3.272;2023-02-24T08:06:40;18.95;;;11.48;;
21034;SDS011;10676;50.848;3.272;2023-02-24T08:09:16;22.20;;;11.65;;
21034;SDS011;10676;50.848;3.272;2023-02-24T08:12:06;21.80;;;11.13;;
21034;SDS011;10676;50.848;3.272;2023-02-24T08:14:32;23.20;;;11.00;;
21034;SDS011;10676;50.848;3.272;2023-02-24T08:16:59;23.20;;;10.98;;
21034;SDS011;10676;50.848;3.272;2023-02-24T08:19:30;15.80;;;10.73;;
21034;SDS011;10676;50.848;3.272;2023-02-24T08:22:03;20.05;;;12.00;;
21034;SDS011;10676;50.848;3.272;2023-02-24T08:24:52;20.20;;;11.32;;
21034;SDS011;10676;50.848;3.272;2023-02-24T08:27:20;18.95;;;12.88;;
21034;SDS011;10676;50.848;3.272;2023-02-24T08:29:48;15.75;;;12.05;;
21034;SDS011;10676;50.848;3.272;2023-02-24T08:32:30;1999.90;;;999.90;;
21034;SDS011;10676;50.848;3.272;2023-02-24T08:35:01;1999.90;;;999.90;;
21034;SDS011;10676;50.848;3.272;2023-02-24T08:37:32;1999.90;;;999.90;;
21034;SDS011;10676;50.848;3.272;2023-02-24T08:40:04;1999.90;;;999.90;;
21034;SDS011;10676;50.848;3.272;2023-02-24T08:42:55;1999.90;;;999.90;;
21034;SDS011;10676;50.848;3.272;2023-02-24T08:45:25;1999.90;;;999.90;;
21034;SDS011;10676;50.848;3.272;2023-02-24T08:47:57;1999.90;;;999.90;;
21034;SDS011;10676;50.848;3.272;2023-02-24T08:50:28;1999.90;;;999.90;;
21034;SDS011;10676;50.848;3.272;2023-02-24T08:52:58;1999.90;;;999.90;;
21034;SDS011;10676;50.848;3.272;2023-02-24T08:55:25;1999.90;;;999.90;;
21034;SDS011;10676;50.848;3.272;2023-02-24T08:57:57;1999.90;;;999.90;;
21034;SDS011;10676;50.848;3.272;2023-02-24T09:00:26;1999.90;;;999.90;;
21034;SDS011;10676;50.848;3.272;2023-02-24T09:03:13;1999.90;;;999.90;;
21034;SDS011;10676;50.848;3.272;2023-02-24T09:06:00;1999.90;;;999.90;;
21034;SDS011;10676;50.848;3.272;2023-02-24T09:08:28;1999.90;;;999.90;;
21034;SDS011;10676;50.848;3.272;2023-02-24T09:11:00;1999.90;;;999.90;;
21034;SDS011;10676;50.848;3.272;2023-02-24T09:13:31;1999.90;;;999.90;;
21034;SDS011;10676;50.848;3.272;2023-02-24T09:16:01;1999.90;;;999.90;;
21034;SDS011;10676;50.848;3.272;2023-02-24T09:18:28;1999.90;;;999.90;;
21034;SDS011;10676;50.848;3.272;2023-02-24T09:20:55;1999.90;;;999.90;;
21034;SDS011;10676;50.848;3.272;2023-02-24T09:23:23;1999.90;;;999.90;;
21034;SDS011;10676;50.848;3.272;2023-02-24T09:25:55;1999.90;;;999.90;;
21034;SDS011;10676;50.848;3.272;2023-02-24T09:28:22;1999.90;;;999.90;;
21034;SDS011;10676;50.848;3.272;2023-02-24T09:30:56;1999.90;;;999.90;;
21034;SDS011;10676;50.848;3.272;2023-02-24T09:33:27;1999.90;;;999.90;;
21034;SDS011;10676;50.848;3.272;2023-02-24T09:36:03;1999.90;;;999.90;;
21034;SDS011;10676;50.848;3.272;2023-02-24T09:38:35;1999.90;;;999.90;;
21034;SDS011;10676;50.848;3.272;2023-02-24T09:44:23;1999.90;;;999.90;;
21034;SDS011;10676;50.848;3.272;2023-02-24T09:49:43;1999.90;;;999.90;;
21034;SDS011;10676;50.848;3.272;2023-02-24T09:52:20;1999.90;;;999.90;;
21034;SDS011;10676;50.848;3.272;2023-02-24T09:55:03;1999.90;;;999.90;;
21034;SDS011;10676;50.848;3.272;2023-02-24T10:03:44;1999.90;;;999.90;;
21034;SDS011;10676;50.848;3.272;2023-02-24T10:06:28;1999.90;;;999.90;;
21034;SDS011;10676;50.848;3.272;2023-02-24T10:09:02;1999.90;;;999.90;;
21034;SDS011;10676;50.848;3.272;2023-02-24T10:11:42;1999.90;;;999.90;;
21034;SDS011;10676;50.848;3.272;2023-02-24T10:14:19;1999.90;;;999.90;;
21034;SDS011;10676;50.848;3.272;2023-02-24T10:16:55;1999.90;;;999.90;;
21034;SDS011;10676;50.848;3.272;2023-02-24T10:19:40;1999.90;;;999.90;;
21034;SDS011;10676;50.848;3.272;2023-02-24T10:22:12;1999.90;;;999.90;;
21034;SDS011;10676;50.848;3.272;2023-02-24T10:31:18;1999.90;;;999.90;;
21034;SDS011;10676;50.848;3.272;2023-02-24T10:33:38;1999.90;;;999.90;;
21034;SDS011;10676;50.848;3.272;2023-02-24T10:36:13;1999.90;;;999.90;;
21034;SDS011;10676;50.848;3.272;2023-02-24T10:38:41;1999.90;;;999.90;;
21034;SDS011;10676;50.848;3.272;2023-02-24T10:41:13;1999.90;;;999.90;;
21034;SDS011;10676;50.848;3.272;2023-02-24T10:43:40;1999.90;;;999.90;;
21034;SDS011;10676;50.848;3.272;2023-02-24T10:46:20;1999.90;;;999.90;;
21034;SDS011;10676;50.848;3.272;2023-02-24T10:48:57;1999.90;;;999.90;;
21034;SDS011;10676;50.848;3.272;2023-02-24T10:51:29;1999.90;;;999.90;;
21034;SDS011;10676;50.848;3.272;2023-02-24T10:56:46;1999.90;;;999.90;;
21034;SDS011;10676;50.848;3.272;2023-02-24T10:59:40;1999.90;;;999.90;;
21034;SDS011;10676;50.848;3.272;2023-02-24T11:02:22;1999.90;;;999.90;;
21034;SDS011;10676;50.848;3.272;2023-02-24T11:04:57;1999.90;;;999.90;;
21034;SDS011;10676;50.848;3.272;2023-02-24T11:07:27;1999.90;;;999.90;;
21034;SDS011;10676;50.848;3.272;2023-02-24T11:10:21;1999.90;;;999.90;;
21034;SDS011;10676;50.848;3.272;2023-02-24T11:12:56;1999.90;;;999.90;;
21034;SDS011;10676;50.848;3.272;2023-02-24T11:15:47;1999.90;;;999.90;;
21034;SDS011;10676;50.848;3.272;2023-02-24T11:18:34;1999.90;;;999.90;;
21034;SDS011;10676;50.848;3.272;2023-02-24T11:21:04;1999.90;;;999.90;;
21034;SDS011;10676;50.848;3.272;2023-02-24T11:26:22;1999.90;;;999.90;;
21034;SDS011;10676;50.848;3.272;2023-02-24T11:31:56;1999.90;;;999.90;;
21034;SDS011;10676;50.848;3.272;2023-02-24T11:34:43;1999.90;;;999.90;;
21034;SDS011;10676;50.848;3.272;2023-02-24T11:40:06;1999.90;;;999.90;;
21034;SDS011;10676;50.848;3.272;2023-02-24T11:42:53;1999.90;;;999.90;;
21034;SDS011;10676;50.848;3.272;2023-02-24T11:45:31;1999.90;;;999.90;;
21034;SDS011;10676;50.848;3.272;2023-02-24T11:48:09;1999.90;;;999.90;;
21034;SDS011;10676;50.848;3.272;2023-02-24T11:53:52;1999.90;;;999.90;;
21034;SDS011;10676;50.848;3.272;2023-02-24T11:59:29;1999.90;;;999.90;;
21034;SDS011;10676;50.848;3.272;2023-02-24T12:04:51;1999.90;;;999.90;;
21034;SDS011;10676;50.848;3.272;2023-02-24T12:10:35;1999.90;;;999.90;;
21034;SDS011;10676;50.848;3.272;2023-02-24T12:16:30;1999.90;;;999.90;;
21034;SDS011;10676;50.848;3.272;2023-02-24T12:19:10;1999.90;;;999.90;;
21034;SDS011;10676;50.848;3.272;2023-02-24T12:21:44;1999.90;;;999.90;;
21034;SDS011;10676;50.848;3.272;2023-02-24T12:24:17;1999.90;;;999.90;;
21034;SDS011;10676;50.848;3.272;2023-02-24T12:32:11;1999.90;;;999.90;;
21034;SDS011;10676;50.848;3.272;2023-02-24T12:45:44;1999.90;;;999.90;;
21034;SDS011;10676;50.848;3.272;2023-02-24T12:51:04;1999.90;;;999.90;;
21034;SDS011;10676;50.848;3.272;2023-02-24T12:58:46;1999.90;;;999.90;;
21034;SDS011;10676;50.848;3.272;2023-02-24T13:01:26;1999.90;;;999.90;;
21034;SDS011;10676;50.848;3.272;2023-02-24T13:12:41;1999.90;;;999.90;;
21034;SDS011;10676;50.848;3.272;2023-02-24T13:15:16;1999.90;;;999.90;;
21034;SDS011;10676;50.848;3.272;2023-02-24T13:17:48;1999.90;;;999.90;;
21034;SDS011;10676;50.848;3.272;2023-02-24T13:20:26;1999.90;;;999.90;;
21034;SDS011;10676;50.848;3.272;2023-02-24T13:22:56;1999.90;;;999.90;;
21034;SDS011;10676;50.848;3.272;2023-02-24T13:25:31;1999.90;;;999.90;;
21034;SDS011;10676;50.848;3.272;2023-02-24T13:28:01;1999.90;;;999.90;;
21034;SDS011;10676;50.848;3.272;2023-02-24T13:33:18;1999.90;;;999.90;;
21034;SDS011;10676;50.848;3.272;2023-02-24T13:35:48;1999.90;;;999.90;;
21034;SDS011;10676;50.848;3.272;2023-02-24T13:44:20;1999.90;;;999.90;;
21034;SDS011;10676;50.848;3.272;2023-02-24T13:46:58;1999.90;;;999.90;;
21034;SDS011;10676;50.848;3.272;2023-02-24T14:01:18;1999.90;;;999.90;;
21034;SDS011;10676;50.848;3.272;2023-02-24T14:03:46;1999.90;;;999.90;;
21034;SDS011;10676;50.848;3.272;2023-02-24T14:06:48;1999.90;;;999.90;;
21034;SDS011;10676;50.848;3.272;2023-02-24T14:09:21;1999.90;;;999.90;;
21034;SDS011;10676;50.848;3.272;2023-02-24T14:12:07;26.98;;;24.17;;
21034;SDS011;10676;50.848;3.272;2023-02-24T14:15:02;25.23;;;19.92;;
21034;SDS011;10676;50.848;3.272;2023-02-24T14:17:30;21.27;;;19.17;;
21034;SDS011;10676;50.848;3.272;2023-02-24T14:22:42;23.83;;;18.63;;
21034;SDS011;10676;50.848;3.272;2023-02-24T14:25:10;21.33;;;16.77;;
21034;SDS011;10676;50.848;3.272;2023-02-24T14:27:36;22.77;;;15.98;;
21034;SDS011;10676;50.848;3.272;2023-02-24T14:30:03;17.85;;;15.95;;
21034;SDS011;10676;50.848;3.272;2023-02-24T14:32:31;18.70;;;16.80;;
21034;SDS011;10676;50.848;3.272;2023-02-24T14:35:00;21.52;;;18.42;;
21034;SDS011;10676;50.848;3.272;2023-02-24T14:37:27;20.83;;;18.58;;
21034;SDS011;10676;50.848;3.272;2023-02-24T14:39:56;20.85;;;18.42;;
21034;SDS011;10676;50.848;3.272;2023-02-24T14:42:24;20.08;;;17.52;;
21034;SDS011;10676;50.848;3.272;2023-02-24T14:44:51;21.33;;;18.45;;
21034;SDS011;10676;50.848;3.272;2023-02-24T14:47:21;22.65;;;20.02;;
21034;SDS011;10676;50.848;3.272;2023-02-24T14:49:53;22.42;;;19.50;;
21034;SDS011;10676;50.848;3.272;2023-02-24T14:54:58;27.10;;;23.38;;
21034;SDS011;10676;50.848;3.272;2023-02-24T15:00:32;24.77;;;20.50;;
21034;SDS011;10676;50.848;3.272;2023-02-24T15:03:13;22.38;;;19.60;;
21034;SDS011;10676;50.848;3.272;2023-02-24T15:05:44;25.58;;;20.02;;
21034;SDS011;10676;50.848;3.272;2023-02-24T15:08:33;23.83;;;18.05;;
21034;SDS011;10676;50.848;3.272;2023-02-24T15:11:19;21.25;;;18.27;;
21034;SDS011;10676;50.848;3.272;2023-02-24T15:13:51;22.55;;;17.38;;
21034;SDS011;10676;50.848;3.272;2023-02-24T15:16:40;22.77;;;18.90;;
21034;SDS011;10676;50.848;3.272;2023-02-24T15:22:48;20.45;;;16.67;;
21034;SDS011;10676;50.848;3.272;2023-02-24T15:24:55;22.52;;;18.58;;
21034;SDS011;10676;50.848;3.272;2023-02-24T15:27:47;23.75;;;17.02;;
21034;SDS011;10676;50.848;3.272;2023-02-24T15:30:51;27.17;;;17.38;;
21034;SDS011;10676;50.848;3.272;2023-02-24T15:33:22;28.25;;;17.38;;
21034;SDS011;10676;50.848;3.272;2023-02-24T15:35:51;24.38;;;16.88;;
21034;SDS011;10676;50.848;3.272;2023-02-24T15:38:28;24.40;;;16.10;;
21034;SDS011;10676;50.848;3.272;2023-02-24T15:40:57;27.67;;;16.77;;
21034;SDS011;10676;50.848;3.272;2023-02-24T15:43:37;22.80;;;16.60;;
21034;SDS011;10676;50.848;3.272;2023-02-24T15:48:53;24.48;;;16.00;;
21034;SDS011;10676;50.848;3.272;2023-02-24T15:51:25;29.05;;;17.75;;
21034;SDS011;10676;50.848;3.272;2023-02-24T15:54:00;28.52;;;16.25;;
21034;SDS011;10676;50.848;3.272;2023-02-24T15:56:27;23.70;;;16.85;;
21034;SDS011;10676;50.848;3.272;2023-02-24T15:58:55;25.33;;;16.77;;
21034;SDS011;10676;50.848;3.272;2023-02-24T16:01:26;29.45;;;16.52;;
21034;SDS011;10676;50.848;3.272;2023-02-24T16:03:56;24.15;;;14.65;;
21034;SDS011;10676;50.848;3.272;2023-02-24T16:06:23;22.55;;;15.00;;
21034;SDS011;10676;50.848;3.272;2023-02-24T16:08:50;19.35;;;14.60;;
21034;SDS011;10676;50.848;3.272;2023-02-24T16:11:19;24.88;;;14.82;;
21034;SDS011;10676;50.848;3.272;2023-02-24T16:13:58;24.70;;;14.77;;
21034;SDS011;10676;50.848;3.272;2023-02-24T16:16:24;23.95;;;17.00;;
21034;SDS011;10676;50.848;3.272;2023-02-24T16:18:51;27.75;;;14.70;;
21034;SDS011;10676;50.848;3.272;2023-02-24T16:21:17;22.85;;;14.43;;
21034;SDS011;10676;50.848;3.272;2023-02-24T16:23:43;22.77;;;13.45;;
21034;SDS011;10676;50.848;3.272;2023-02-24T16:26:13;31.70;;;15.27;;
21034;SDS011;10676;50.848;3.272;2023-02-24T16:28:41;24.92;;;14.68;;
21034;SDS011;10676;50.848;3.272;2023-02-24T16:31:08;21.33;;;14.82;;
21034;SDS011;10676;50.848;3.272;2023-02-24T16:33:33;29.63;;;15.88;;
21034;SDS011;10676;50.848;3.272;2023-02-24T16:35:59;31.88;;;15.52;;
21034;SDS011;10676;50.848;3.272;2023-02-24T16:38:25;20.52;;;14.90;;
21034;SDS011;10676;50.848;3.272;2023-02-24T16:40:51;19.33;;;12.80;;
21034;SDS011;10676;50.848;3.272;2023-02-24T16:43:17;18.55;;;12.38;;
21034;SDS011;10676;50.848;3.272;2023-02-24T16:45:43;22.90;;;12.13;;
21034;SDS011;10676;50.848;3.272;2023-02-24T16:48:15;23.80;;;13.15;;
21034;SDS011;10676;50.848;3.272;2023-02-24T16:50:45;28.65;;;12.63;;
21034;SDS011;10676;50.848;3.272;2023-02-24T16:53:12;24.05;;;12.93;;
21034;SDS011;10676;50.848;3.272;2023-02-24T16:55:40;24.52;;;13.25;;
21034;SDS011;10676;50.848;3.272;2023-02-24T16:58:07;30.75;;;14.40;;
21034;SDS011;10676;50.848;3.272;2023-02-24T17:00:33;27.42;;;12.55;;
21034;SDS011;10676;50.848;3.272;2023-02-24T17:02:59;27.92;;;12.48;;
21034;SDS011;10676;50.848;3.272;2023-02-24T17:05:28;31.60;;;12.50;;
21034;SDS011;10676;50.848;3.272;2023-02-24T17:07:54;20.73;;;12.13;;